Time;durP1;ratioP1;P1;durP2;ratioP2;P2;SDS_P1;SDS_P2;PMS_P1;PMS_P2;Temp;Humidity;BMP_temperature;BMP_pressure;BME280_temperature;BME280_humidity;BME280_pressure;Samples;Min_cycle;Max_cycle;Signal;HPM_P1;HPM_P2
2022/07/04 00:00:53;;;;;;;4.35;1.70;;;14.80;99.90;;;;;;4198349;28;20135;-91
2022/07/04 00:02:56;;;;;;;7.25;1.52;;;14.80;99.90;;;;;;4198083;28;20052;-91
2022/07/04 00:04:59;;;;;;;5.13;1.98;;;14.80;99.90;;;;;;4181315;28;20049;-91
2022/07/04 00:07:06;;;;;;;4.25;1.80;;;14.80;99.90;;;;;;4181600;28;20377;-91
2022/07/04 00:09:08;;;;;;;3.78;1.60;;;14.70;99.90;;;;;;4181816;28;20060;-91
2022/07/04 00:11:09;;;;;;;7.05;2.30;;;14.80;99.90;;;;;;4181849;28;20048;-91
2022/07/04 00:13:10;;;;;;;7.50;1.50;;;14.80;99.90;;;;;;4215288;28;20107;-91
2022/07/04 00:15:20;;;;;;;6.35;1.58;;;14.70;99.90;;;;;;4181782;28;20049;-91
2022/07/04 00:17:28;;;;;;;4.55;1.75;;;14.70;99.90;;;;;;4165731;28;20046;-91
2022/07/04 00:19:29;;;;;;;8.80;1.92;;;14.70;99.90;;;;;;4165253;28;20049;-90
2022/07/04 00:21:29;;;;;;;4.40;1.60;;;14.70;99.90;;;;;;4174071;28;20110;-91
2022/07/04 00:23:34;;;;;;;6.18;2.08;;;14.70;99.90;;;;;;4181619;28;20052;-90
2022/07/04 00:25:37;;;;;;;4.85;1.70;;;14.60;99.90;;;;;;4181364;28;20420;-90
2022/07/04 00:27:37;;;;;;;7.50;2.20;;;14.60;99.90;;;;;;4181104;28;20071;-91
2022/07/04 00:29:41;;;;;;;4.13;1.85;;;14.60;99.90;;;;;;4208411;28;20048;-91
2022/07/04 00:31:43;;;;;;;4.05;1.50;;;14.60;99.90;;;;;;4197898;28;20847;-91
2022/07/04 00:33:44;;;;;;;8.02;1.83;;;14.50;99.90;;;;;;4198218;28;20048;-90
2022/07/04 00:35:47;;;;;;;2.17;1.55;;;14.50;99.90;;;;;;4165291;28;20049;-91
2022/07/04 00:37:49;;;;;;;4.60;2.17;;;14.50;99.90;;;;;;4198164;28;20139;-91
2022/07/04 00:39:50;;;;;;;7.65;1.90;;;14.50;99.90;;;;;;4201762;28;20049;-90
2022/07/04 00:41:53;;;;;;;4.95;1.75;;;14.40;99.90;;;;;;4215349;28;20040;-91
2022/07/04 00:44:06;;;;;;;6.28;1.67;;;14.40;99.90;;;;;;4231904;28;20051;-91
2022/07/04 00:46:09;;;;;;;8.63;2.47;;;14.40;99.90;;;;;;4180835;28;20594;-91
2022/07/04 00:48:11;;;;;;;3.20;1.58;;;14.40;99.90;;;;;;4214559;28;20051;-90
2022/07/04 00:50:12;;;;;;;4.78;1.85;;;14.40;99.90;;;;;;4180922;28;20099;-91
2022/07/04 00:52:15;;;;;;;3.33;1.67;;;14.40;99.90;;;;;;4181173;28;20471;-91
2022/07/04 00:54:28;;;;;;;3.75;1.30;;;14.40;99.90;;;;;;4181199;28;20045;-91
2022/07/04 00:56:29;;;;;;;3.25;1.77;;;14.40;99.90;;;;;;4180936;28;20045;-91
2022/07/04 00:58:44;;;;;;;4.03;1.60;;;14.30;99.90;;;;;;4181055;28;20095;-91
2022/07/04 01:00:46;;;;;;;3.75;1.88;;;14.20;99.90;;;;;;4197794;28;20040;-91
2022/07/04 01:02:49;;;;;;;3.80;1.58;;;14.20;99.90;;;;;;4180983;28;20045;-91
2022/07/04 01:05:04;;;;;;;2.97;1.35;;;14.20;99.90;;;;;;4181220;28;20128;-91
2022/07/04 01:07:13;;;;;;;5.95;1.85;;;14.20;99.90;;;;;;4197333;28;20041;-90
2022/07/04 01:12:30;;;;;;;4.72;1.63;;;14.10;99.90;;;;;;4202312;28;20038;-91
2022/07/04 01:14:40;;;;;;;3.70;1.70;;;14.10;99.90;;;;;;4189733;28;20053;-91
2022/07/04 01:16:41;;;;;;;3.47;1.50;;;14.10;99.90;;;;;;4204494;28;20053;-91
2022/07/04 01:18:42;;;;;;;5.20;1.85;;;14.10;99.90;;;;;;4195172;28;20059;-90
2022/07/04 01:20:44;;;;;;;4.75;2.13;;;14.10;99.90;;;;;;4201288;28;20056;-91
2022/07/04 01:22:51;;;;;;;2.42;1.38;;;14.10;99.90;;;;;;4184159;28;20041;-91
2022/07/04 01:24:52;;;;;;;4.78;1.75;;;14.10;99.90;;;;;;4184036;28;20060;-91
2022/07/04 01:26:52;;;;;;;3.90;2.17;;;14.10;99.90;;;;;;4184762;28;20041;-91
2022/07/04 01:28:55;;;;;;;3.67;1.92;;;14.10;99.90;;;;;;4187027;28;20045;-91
2022/07/04 01:33:45;;;;;;;5.85;2.08;;;14.10;99.90;;;;;;4203600;28;20110;-90
2022/07/04 01:35:47;;;;;;;4.28;2.42;;;14.00;99.90;;;;;;4203672;28;20213;-90
2022/07/04 01:37:57;;;;;;;6.53;2.30;;;14.00;99.90;;;;;;4187066;28;20037;-91
2022/07/04 01:39:58;;;;;;;3.88;1.77;;;14.00;99.90;;;;;;4205363;28;20080;-90
2022/07/04 01:42:00;;;;;;;6.25;2.03;;;14.00;99.90;;;;;;4238154;28;20454;-90
2022/07/04 01:44:02;;;;;;;5.93;1.98;;;14.00;99.90;;;;;;4204768;28;20056;-90
2022/07/04 01:46:02;;;;;;;3.33;2.17;;;14.00;99.90;;;;;;4185107;28;20033;-91
2022/07/04 01:48:05;;;;;;;8.30;2.22;;;13.90;99.90;;;;;;4203198;28;20052;-90
2022/07/04 01:50:12;;;;;;;5.85;2.20;;;13.90;99.90;;;;;;4212815;28;20052;-90
2022/07/04 01:52:18;;;;;;;5.28;2.28;;;13.80;99.90;;;;;;4200348;28;20044;-91
2022/07/04 01:54:21;;;;;;;6.38;2.30;;;13.80;99.90;;;;;;4196588;28;20048;-90
2022/07/04 01:56:22;;;;;;;4.07;2.50;;;13.80;99.90;;;;;;4194592;28;20080;-90
2022/07/04 01:58:23;;;;;;;6.68;2.17;;;13.80;99.90;;;;;;4183742;28;20049;-91
2022/07/04 02:02:59;;;;;;;4.50;2.45;;;13.70;99.90;;;;;;4226272;28;20048;-91
2022/07/04 02:05:09;;;;;;;4.53;2.50;;;13.60;99.90;;;;;;4199702;28;20049;-91
2022/07/04 02:07:10;;;;;;;4.82;2.30;;;13.60;99.90;;;;;;4199831;28;20476;-90
2022/07/04 02:09:18;;;;;;;5.50;3.03;;;13.60;99.90;;;;;;4172934;28;20048;-91
2022/07/04 02:11:27;;;;;;;4.68;3.03;;;13.60;99.90;;;;;;4183021;28;20103;-90
2022/07/04 02:13:37;;;;;;;3.58;2.50;;;13.60;99.90;;;;;;4183117;28;20059;-91
2022/07/04 02:15:49;;;;;;;5.57;2.63;;;13.50;99.90;;;;;;4184250;28;20252;-90
2022/07/04 02:17:51;;;;;;;4.95;2.47;;;13.50;99.90;;;;;;4185175;28;20497;-91
2022/07/04 02:19:52;;;;;;;4.20;2.17;;;13.50;99.90;;;;;;4187056;28;20049;-90
2022/07/04 02:21:53;;;;;;;4.15;2.38;;;13.50;99.90;;;;;;4187504;28;20517;-91
2022/07/04 02:24:02;;;;;;;5.05;2.30;;;13.50;99.90;;;;;;4188264;28;20044;-90
2022/07/04 02:26:03;;;;;;;8.25;3.05;;;13.40;99.90;;;;;;4188771;28;20048;-91
2022/07/04 02:28:05;;;;;;;7.72;2.45;;;13.40;99.90;;;;;;4191210;28;20049;-90
2022/07/04 02:30:07;;;;;;;12.57;3.17;;;13.40;99.90;;;;;;4190033;28;20049;-91
2022/07/04 02:32:09;;;;;;;3.03;2.20;;;13.40;99.90;;;;;;4217596;28;20024;-90
2022/07/04 02:34:10;;;;;;;4.80;2.75;;;13.40;99.90;;;;;;4188332;28;20124;-92
2022/07/04 02:36:29;;;;;;;6.75;3.22;;;13.40;99.90;;;;;;4183732;28;20482;-92
2022/07/04 02:38:36;;;;;;;5.97;3.00;;;13.40;99.90;;;;;;4190000;28;20045;-91
2022/07/04 02:40:39;;;;;;;5.00;2.45;;;13.40;99.90;;;;;;4187630;28;20481;-91
2022/07/04 02:42:40;;;;;;;7.28;2.97;;;13.40;99.90;;;;;;4189448;28;20088;-92
2022/07/04 02:44:45;;;;;;;5.30;2.97;;;13.40;99.90;;;;;;4200070;28;20041;-92
2022/07/04 02:47:00;;;;;;;7.13;2.70;;;13.40;99.90;;;;;;4183035;28;20471;-92
2022/07/04 02:49:04;;;;;;;6.57;3.10;;;13.40;99.90;;;;;;4183855;28;20044;-92
2022/07/04 02:51:14;;;;;;;7.03;3.63;;;13.40;99.90;;;;;;4182979;28;20096;-92
2022/07/04 02:53:21;;;;;;;4.68;3.00;;;13.40;99.90;;;;;;4182670;28;20053;-92
2022/07/04 02:55:29;;;;;;;7.10;3.20;;;13.40;99.90;;;;;;4199390;28;20080;-92
2022/07/04 02:57:46;;;;;;;5.00;3.10;;;13.40;99.90;;;;;;4182406;28;20080;-92
2022/07/04 02:59:47;;;;;;;5.43;2.95;;;13.40;99.90;;;;;;4182587;28;20053;-92
2022/07/04 03:01:55;;;;;;;6.60;3.30;;;13.40;99.90;;;;;;4182813;28;20053;-92
2022/07/04 03:04:19;;;;;;;8.75;3.53;;;13.40;99.90;;;;;;4182902;28;20409;-91
2022/07/04 03:06:29;;;;;;;7.65;3.35;;;13.40;99.90;;;;;;4182443;28;20131;-92
2022/07/04 03:08:37;;;;;;;8.88;3.78;;;13.40;99.90;;;;;;4182428;28;20095;-92
2022/07/04 03:10:53;;;;;;;7.05;3.08;;;13.40;99.90;;;;;;4198958;28;20051;-92
2022/07/04 03:13:01;;;;;;;8.60;3.55;;;13.50;99.90;;;;;;4182564;28;20148;-92
2022/07/04 03:15:03;;;;;;;9.82;3.20;;;13.40;99.90;;;;;;4183219;28;20071;-93
2022/07/04 03:17:12;;;;;;;6.97;3.70;;;13.40;99.90;;;;;;4182760;28;20041;-92
2022/07/04 03:19:17;;;;;;;6.97;4.03;;;13.40;99.90;;;;;;4182771;28;20055;-92
2022/07/04 03:21:18;;;;;;;6.45;3.55;;;13.40;99.90;;;;;;4182696;28;20385;-92
2022/07/04 03:23:26;;;;;;;6.75;3.80;;;13.40;99.90;;;;;;4191017;28;20040;-93
2022/07/04 03:25:28;;;;;;;8.70;3.90;;;13.40;99.90;;;;;;4184447;28;20053;-92
2022/07/04 03:27:29;;;;;;;6.28;3.70;;;13.40;99.90;;;;;;4182151;28;20045;-92
2022/07/04 03:29:39;;;;;;;7.82;4.10;;;13.40;99.90;;;;;;4199276;28;20443;-92
2022/07/04 03:31:41;;;;;;;7.53;4.20;;;13.40;99.90;;;;;;4201060;28;20078;-91
2022/07/04 03:33:55;;;;;;;7.43;3.53;;;13.40;99.90;;;;;;4182653;28;20174;-92
2022/07/04 03:35:57;;;;;;;13.90;4.35;;;13.40;99.90;;;;;;4182645;28;20041;-92
2022/07/04 03:37:59;;;;;;;8.70;4.20;;;13.40;99.90;;;;;;4182048;28;20055;-92
2022/07/04 03:40:02;;;;;;;13.02;4.60;;;13.40;99.90;;;;;;4187237;28;20124;-91
2022/07/04 03:42:03;;;;;;;9.35;3.90;;;13.40;99.90;;;;;;4195454;28;20056;-92
2022/07/04 03:44:05;;;;;;;6.75;4.20;;;13.40;99.90;;;;;;4195934;28;20041;-92
2022/07/04 03:46:08;;;;;;;7.15;4.32;;;13.40;99.90;;;;;;4193416;28;20049;-92
2022/07/04 03:48:10;;;;;;;8.60;3.97;;;13.40;99.90;;;;;;4195391;28;20045;-92
2022/07/04 03:50:11;;;;;;;7.72;4.28;;;13.40;99.90;;;;;;4194580;28;20041;-91
2022/07/04 03:52:20;;;;;;;8.18;3.97;;;13.40;99.90;;;;;;4192545;28;20480;-93
2022/07/04 03:57:36;;;;;;;10.93;4.25;;;13.40;99.90;;;;;;4202319;28;20168;-92
2022/07/04 03:59:44;;;;;;;7.00;3.78;;;13.50;99.90;;;;;;4199309;28;20045;-91
2022/07/04 04:01:46;;;;;;;7.30;4.05;;;13.40;99.90;;;;;;4192544;28;20041;-92
2022/07/04 04:06:30;;;;;;;10.77;4.03;;;13.50;99.90;;;;;;4198528;28;20044;-93
2022/07/04 04:08:32;;;;;;;8.95;4.18;;;13.50;99.90;;;;;;4182862;28;20429;-93
2022/07/04 04:10:50;;;;;;;10.52;4.70;;;13.50;99.90;;;;;;4181958;28;20045;-92
2022/07/04 04:12:52;;;;;;;6.93;4.35;;;13.50;99.90;;;;;;4181569;28;20374;-92
2022/07/04 04:15:05;;;;;;;8.00;3.85;;;13.60;99.90;;;;;;4183316;28;20063;-92
2022/07/04 04:17:06;;;;;;;8.20;4.65;;;13.50;99.90;;;;;;4181836;28;20073;-92
2022/07/04 04:19:07;;;;;;;9.63;3.80;;;13.50;99.90;;;;;;4181715;28;20612;-92
2022/07/04 04:21:09;;;;;;;5.80;3.80;;;13.40;99.90;;;;;;4198773;28;20036;-92
2022/07/04 04:23:20;;;;;;;7.63;3.95;;;13.60;99.90;;;;;;4181695;28;20400;-92
2022/07/04 04:25:35;;;;;;;9.48;4.07;;;13.60;99.90;;;;;;4182094;28;20040;-92
2022/07/04 04:27:38;;;;;;;6.97;3.95;;;13.70;99.90;;;;;;4182316;28;20045;-92
2022/07/04 04:29:52;;;;;;;8.07;3.65;;;13.80;99.90;;;;;;4182016;28;20041;-92
2022/07/04 04:32:01;;;;;;;8.48;3.47;;;13.80;99.90;;;;;;4181906;28;20060;-92
2022/07/04 04:34:11;;;;;;;10.68;3.47;;;13.90;99.90;;;;;;4182275;28;20520;-91
2022/07/04 04:36:17;;;;;;;7.97;3.75;;;14.00;99.90;;;;;;4197766;28;20525;-91
2022/07/04 04:38:19;;;;;;;6.00;3.55;;;14.00;99.90;;;;;;4197310;28;20075;-89
2022/07/04 04:40:36;;;;;;;6.95;3.90;;;14.00;99.90;;;;;;4181426;28;20045;-91
2022/07/04 04:42:43;;;;;;;6.93;3.40;;;14.10;99.90;;;;;;4187758;28;20076;-91
2022/07/04 04:44:44;;;;;;;7.20;3.25;;;14.20;99.90;;;;;;4192451;28;20052;-87
2022/07/04 04:46:45;;;;;;;8.68;3.30;;;14.20;99.90;;;;;;4201599;28;20524;-87
2022/07/04 04:48:47;;;;;;;6.85;3.28;;;14.20;99.90;;;;;;4185286;28;20077;-87
2022/07/04 04:50:51;;;;;;;9.00;3.10;;;14.20;99.90;;;;;;4185824;28;20505;-87
2022/07/04 04:52:54;;;;;;;9.07;3.28;;;14.30;99.90;;;;;;4217768;28;20100;-87
2022/07/04 04:54:57;;;;;;;6.88;3.50;;;14.40;99.90;;;;;;4185402;28;20515;-88
2022/07/04 04:56:57;;;;;;;9.65;3.03;;;14.40;99.90;;;;;;4184950;28;20142;-88
2022/07/04 04:58:59;;;;;;;9.30;3.28;;;14.40;99.90;;;;;;4200896;28;20044;-87
2022/07/04 05:01:02;;;;;;;3.67;2.50;;;14.40;99.90;;;;;;4184967;28;20056;-88
2022/07/04 05:03:03;;;;;;;4.93;2.20;;;14.50;99.90;;;;;;4199004;28;20289;-89
2022/07/04 05:05:11;;;;;;;5.22;2.50;;;14.50;99.90;;;;;;4185323;28;20133;-89
2022/07/04 05:07:12;;;;;;;11.32;3.22;;;14.60;99.90;;;;;;4170751;28;20052;-89
2022/07/04 05:09:13;;;;;;;6.13;2.33;;;14.60;99.90;;;;;;4204238;28;20049;-89
2022/07/04 05:11:17;;;;;;;10.52;3.20;;;14.60;99.90;;;;;;4190305;28;20682;-89
2022/07/04 05:13:20;;;;;;;7.82;2.95;;;14.70;99.90;;;;;;4204250;28;20052;-89
2022/07/04 05:15:22;;;;;;;4.53;2.45;;;14.80;99.90;;;;;;4187059;28;20040;-89
2022/07/04 05:17:26;;;;;;;5.10;2.17;;;14.80;99.90;;;;;;4202941;28;20127;-89
2022/07/04 05:19:27;;;;;;;7.28;2.92;;;14.90;99.90;;;;;;4186199;28;20155;-88
2022/07/04 05:21:29;;;;;;;7.18;2.70;;;15.00;99.90;;;;;;4202405;28;20527;-89
2022/07/04 05:23:29;;;;;;;4.75;2.20;;;15.10;99.90;;;;;;4186435;28;20044;-89
2022/07/04 05:25:32;;;;;;;5.80;2.63;;;15.20;99.90;;;;;;4184966;28;20102;-90
2022/07/04 05:27:33;;;;;;;4.32;2.00;;;15.30;99.90;;;;;;4188210;28;20109;-87
2022/07/04 05:29:34;;;;;;;4.03;2.13;;;15.40;99.90;;;;;;4206257;28;20123;-87
2022/07/04 05:31:36;;;;;;;7.60;1.80;;;15.40;99.90;;;;;;4190413;28;20103;-88
2022/07/04 05:33:37;;;;;;;6.30;1.90;;;15.40;99.90;;;;;;4189559;28;20524;-89
2022/07/04 05:35:38;;;;;;;6.25;2.30;;;15.40;99.90;;;;;;4189496;28;20049;-89
2022/07/04 05:37:39;;;;;;;4.32;1.80;;;15.40;99.90;;;;;;4189452;28;20412;-88
2022/07/04 05:39:41;;;;;;;4.70;1.90;;;15.40;99.90;;;;;;4203928;28;20048;-89
2022/07/04 05:41:43;;;;;;;4.63;2.00;;;15.40;99.90;;;;;;4205164;28;20052;-88
2022/07/04 05:43:44;;;;;;;5.57;2.67;;;15.40;99.90;;;;;;4196848;28;20041;-89
2022/07/04 05:45:45;;;;;;;5.13;2.28;;;15.30;99.90;;;;;;4218215;28;20039;-89
2022/07/04 05:47:46;;;;;;;6.95;2.70;;;15.40;99.90;;;;;;4202217;28;20041;-88
2022/07/04 05:49:47;;;;;;;8.35;2.88;;;15.40;99.90;;;;;;4201949;28;20029;-89
2022/07/04 05:51:49;;;;;;;2.95;1.90;;;15.50;99.90;;;;;;4201931;28;20112;-88
2022/07/04 05:53:52;;;;;;;8.70;2.38;;;15.60;99.90;;;;;;4202121;28;20029;-89
2022/07/04 05:55:53;;;;;;;5.97;2.20;;;15.60;99.90;;;;;;4216251;28;20028;-88
2022/07/04 05:57:58;;;;;;;3.85;2.00;;;15.70;99.90;;;;;;4218654;28;20065;-89
2022/07/04 06:00:00;;;;;;;5.80;2.30;;;15.70;99.90;;;;;;4198368;28;20045;-89
2022/07/04 06:02:01;;;;;;;5.47;3.03;;;15.60;99.90;;;;;;4214983;28;20049;-88
2022/07/04 06:04:03;;;;;;;6.90;2.38;;;15.60;99.90;;;;;;4198734;28;20048;-89
2022/07/04 06:06:04;;;;;;;6.80;2.53;;;15.70;99.90;;;;;;4213402;28;20033;-90
2022/07/04 06:08:05;;;;;;;10.80;3.17;;;15.70;99.90;;;;;;4194633;28;20037;-89
2022/07/04 06:10:06;;;;;;;6.68;2.55;;;15.60;99.90;;;;;;4200604;28;20186;-89
2022/07/04 06:12:07;;;;;;;5.63;2.60;;;15.60;99.90;;;;;;4233449;28;20384;-87
2022/07/04 06:14:09;;;;;;;16.17;3.45;;;15.70;99.90;;;;;;4184234;28;20135;-87
2022/07/04 06:16:10;;;;;;;5.25;2.47;;;15.70;99.90;;;;;;4184341;28;20706;-87
2022/07/04 06:18:12;;;;;;;5.93;2.38;;;15.80;99.90;;;;;;4218490;28;20044;-87
2022/07/04 06:20:12;;;;;;;5.63;2.92;;;15.80;99.90;;;;;;4183329;28;20051;-88
2022/07/04 06:22:14;;;;;;;10.32;3.00;;;15.90;99.90;;;;;;4216330;28;20105;-88
2022/07/04 06:24:15;;;;;;;8.93;2.78;;;16.00;99.90;;;;;;4198656;28;20497;-87
2022/07/04 06:26:16;;;;;;;6.85;2.13;;;16.10;99.90;;;;;;4198958;28;20175;-89
2022/07/04 06:28:17;;;;;;;5.88;2.58;;;16.10;99.90;;;;;;4181559;28;20114;-85
2022/07/04 06:30:18;;;;;;;6.03;2.30;;;16.20;99.90;;;;;;4198074;28;20083;-85
2022/07/04 06:32:19;;;;;;;6.90;3.17;;;16.30;99.90;;;;;;4198722;28;20068;-86
2022/07/04 06:36:40;;;;;;;10.30;3.17;;;16.50;99.90;;;;;;4197476;28;20080;-86
2022/07/04 06:38:40;;;;;;;6.78;2.70;;;16.60;99.90;;;;;;4198132;28;20546;-87
2022/07/04 06:40:41;;;;;;;10.60;2.17;;;16.70;99.90;;;;;;4199592;28;20481;-87
2022/07/04 06:42:42;;;;;;;4.82;2.15;;;16.80;99.90;;;;;;4181152;28;20087;-87
2022/07/04 06:44:43;;;;;;;9.10;2.33;;;16.90;99.90;;;;;;4194770;28;20401;-87
2022/07/04 06:46:45;;;;;;;8.38;3.60;;;16.80;99.90;;;;;;4213505;28;20060;-86
2022/07/04 06:48:47;;;;;;;9.38;1.85;;;17.00;99.90;;;;;;4163472;28;20528;-87
2022/07/04 06:50:48;;;;;;;4.10;2.13;;;17.10;99.90;;;;;;4180423;28;20538;-86
2022/07/04 06:52:49;;;;;;;7.65;2.03;;;17.20;99.90;;;;;;4182703;28;20029;-86
2022/07/04 06:54:49;;;;;;;5.47;1.77;;;17.20;99.90;;;;;;4197251;28;20102;-87
2022/07/04 06:56:51;;;;;;;7.60;1.70;;;;;;;;;;4181483;28;20118;-87
2022/07/04 06:58:52;;;;;;;4.63;1.83;;;;;;;;;;4181877;28;20099;-87
2022/07/04 07:00:53;;;;;;;6.53;2.50;;;;;;;;;;4213849;28;20468;-89
2022/07/04 07:02:54;;;;;;;7.07;2.00;;;;;;;;;;4221326;28;20185;-87
2022/07/04 07:04:56;;;;;;;8.75;2.30;;;;;;;;;;4181100;28;20045;-87
2022/07/04 07:06:57;;;;;;;5.22;1.70;;;;;;;;;;4180957;28;20564;-88
2022/07/04 07:08:58;;;;;;;8.02;2.60;;;;;;;;;;4180219;28;20044;-87
2022/07/04 07:11:12;;;;;;;4.97;2.58;;;17.40;99.90;;;;;;4198428;28;20044;-87
2022/07/04 07:13:14;;;;;;;3.75;1.70;;;17.80;99.90;;;;;;4198774;28;20044;-88
2022/07/04 07:15:16;;;;;;;3.53;1.70;;;17.80;99.90;;;;;;4197462;28;20420;-87
2022/07/04 07:17:17;;;;;;;5.53;1.88;;;17.90;99.90;;;;;;4198605;28;20404;-86
2022/07/04 07:19:18;;;;;;;7.40;2.08;;;18.00;99.90;;;;;;4199714;28;20115;-85
2022/07/04 07:21:20;;;;;;;5.47;1.70;;;18.00;99.90;;;;;;4199840;28;20048;-86
2022/07/04 07:23:20;;;;;;;6.82;1.90;;;18.10;99.90;;;;;;4198429;28;20040;-86
2022/07/04 07:25:21;;;;;;;5.18;1.48;;;18.20;99.90;;;;;;4200914;28;20064;-87
2022/07/04 07:27:22;;;;;;;6.82;1.73;;;18.30;99.90;;;;;;4182126;28;20043;-88
2022/07/04 07:29:23;;;;;;;3.92;1.70;;;18.40;99.90;;;;;;4197901;28;20504;-87
2022/07/04 07:31:24;;;;;;;6.05;2.10;;;18.50;99.90;;;;;;4197899;28;20047;-90
2022/07/04 07:33:25;;;;;;;5.30;1.90;;;18.50;99.90;;;;;;4199537;28;20036;-91
2022/07/04 07:35:26;;;;;;;8.77;2.05;;;18.50;99.90;;;;;;4198277;28;20131;-90
2022/07/04 07:37:27;;;;;;;2.60;1.42;;;18.40;99.90;;;;;;4199668;28;20102;-91
2022/07/04 07:39:29;;;;;;;5.97;1.60;;;18.40;99.90;;;;;;4182363;28;20049;-91
2022/07/04 07:41:36;;;;;;;9.27;2.83;;;18.40;99.90;;;;;;4200116;28;20534;-90
2022/07/04 07:43:43;;;;;;;5.15;2.13;;;18.40;99.90;;;;;;4200227;28;20405;-91
2022/07/04 07:45:44;;;;;;;6.50;1.67;;;18.40;99.90;;;;;;4170599;28;20091;-92
2022/07/04 07:47:46;;;;;;;7.75;1.77;;;18.50;99.90;;;;;;4166512;28;20085;-92
2022/07/04 07:49:47;;;;;;;3.35;1.20;;;18.50;99.90;;;;;;4200094;28;20448;-89
2022/07/04 07:51:48;;;;;;;5.03;1.60;;;18.60;99.90;;;;;;4182193;28;20386;-90
2022/07/04 07:53:49;;;;;;;3.42;1.55;;;18.60;99.90;;;;;;4198419;28;20122;-90
2022/07/04 07:55:53;;;;;;;4.47;2.38;;;18.60;99.90;;;;;;4183267;28;20548;-91
2022/07/04 07:57:58;;;;;;;6.95;1.60;;;18.50;99.90;;;;;;4216373;28;20044;-88
2022/07/04 07:59:59;;;;;;;4.93;1.67;;;18.40;99.90;;;;;;4215134;28;20055;-90
2022/07/04 08:02:04;;;;;;;4.45;1.50;;;18.40;99.90;;;;;;4198271;28;20056;-91
2022/07/04 08:06:24;;;;;;;7.10;1.98;;;18.20;99.90;;;;;;4181081;28;20060;-91
2022/07/04 08:08:26;;;;;;;3.95;1.70;;;18.10;99.90;;;;;;4182570;28;20052;-90
2022/07/04 08:10:29;;;;;;;4.47;1.98;;;18.00;99.90;;;;;;4214623;28;20076;-89
2022/07/04 08:12:30;;;;;;;5.18;2.40;;;17.90;99.90;;;;;;4197595;28;20045;-90
2022/07/04 08:14:31;;;;;;;5.70;2.22;;;17.90;99.90;;;;;;4182176;28;20116;-90
2022/07/04 08:16:33;;;;;;;3.05;1.58;;;17.90;99.90;;;;;;4181990;28;20124;-90
2022/07/04 08:18:34;;;;;;;4.32;1.83;;;17.90;99.90;;;;;;4198070;28;20048;-90
2022/07/04 08:20:34;;;;;;;3.20;1.45;;;17.90;99.90;;;;;;4185677;28;20045;-89
2022/07/04 08:22:35;;;;;;;10.88;2.65;;;17.90;99.90;;;;;;4168013;28;20049;-90
2022/07/04 08:24:37;;;;;;;6.57;1.52;;;17.90;99.90;;;;;;4201313;28;20110;-89
2022/07/04 08:26:38;;;;;;;5.20;1.52;;;17.90;99.90;;;;;;4217299;28;20051;-89
2022/07/04 08:28:38;;;;;;;5.50;1.30;;;17.90;99.90;;;;;;4185970;28;20044;-90
2022/07/04 08:30:39;;;;;;;4.38;1.60;;;17.90;99.90;;;;;;4216994;28;20052;-88
2022/07/04 08:32:43;;;;;;;3.65;1.70;;;18.00;99.90;;;;;;4183538;28;20056;-89
2022/07/04 08:34:44;;;;;;;4.93;1.70;;;18.00;99.90;;;;;;4168172;28;20045;-91
2022/07/04 08:36:46;;;;;;;7.47;2.30;;;18.10;99.90;;;;;;4217747;28;20058;-89
2022/07/04 08:38:47;;;;;;;3.55;1.70;;;18.20;99.90;;;;;;4200663;28;20055;-92
2022/07/04 08:40:52;;;;;;;4.50;1.60;;;18.40;99.90;;;;;;4169183;28;20045;-91
2022/07/04 08:42:54;;;;;;;4.32;1.77;;;18.70;99.90;;;;;;4218341;28;20083;-92
2022/07/04 08:44:55;;;;;;;5.88;1.40;;;19.00;99.90;;;;;;4201962;28;20052;-89
2022/07/04 08:46:56;;;;;;;5.20;1.40;;;19.20;99.90;;;;;;4184801;28;20131;-86
2022/07/04 08:49:02;;;;;;;8.57;1.50;;;19.30;99.90;;;;;;4200296;28;20044;-86
2022/07/04 08:51:16;;;;;;;1.98;0.80;;;19.30;99.90;;;;;;4199627;28;20055;-86
2022/07/04 08:53:27;;;;;;;2.88;1.00;;;19.60;99.90;;;;;;4188617;28;20044;-85
2022/07/04 09:00:11;;;;;;;2.35;0.75;;;19.70;99.90;;;;;;4183552;28;20061;-87
2022/07/04 09:02:14;;;;;;;7.30;1.40;;;19.80;99.90;;;;;;4184727;28;20044;-90
2022/07/04 09:04:15;;;;;;;5.05;0.90;;;19.90;99.70;;;;;;4199984;28;20546;-88
2022/07/04 09:06:16;;;;;;;3.25;0.80;;;19.90;98.20;;;;;;4184997;28;20049;-89
2022/07/04 09:08:17;;;;;;;8.48;1.10;;;20.00;97.60;;;;;;4200691;28;20037;-87
2022/07/04 09:10:19;;;;;;;2.35;0.70;;;20.10;97.50;;;;;;4183137;28;20404;-87
2022/07/04 09:12:19;;;;;;;3.58;1.05;;;20.30;97.30;;;;;;4183922;28;20535;-88
2022/07/04 09:14:20;;;;;;;1.17;0.60;;;20.50;97.30;;;;;;4166857;28;20045;-88
2022/07/04 09:16:21;;;;;;;4.38;0.68;;;20.70;96.80;;;;;;4184275;28;20051;-87
2022/07/04 09:18:28;;;;;;;2.88;1.05;;;20.90;93.40;;;;;;4183603;28;20048;-88
2022/07/04 09:20:31;;;;;;;2.97;0.77;;;21.10;95.40;;;;;;4198207;28;20122;-88
2022/07/04 09:22:32;;;;;;;3.45;0.90;;;21.20;94.50;;;;;;4201290;28;21129;-87
2022/07/04 09:24:54;;;;;;;2.45;0.50;;;21.40;94.30;;;;;;4187074;28;20087;-88
2022/07/04 09:26:56;;;;;;;1.42;0.50;;;21.30;87.10;;;;;;4202615;28;20048;-89
2022/07/04 09:28:58;;;;;;;2.30;0.73;;;21.60;92.70;;;;;;4199641;28;20416;-89
2022/07/04 09:31:00;;;;;;;1.13;0.60;;;21.70;92.30;;;;;;4183431;28;20075;-88
2022/07/04 09:33:02;;;;;;;6.45;1.33;;;21.60;89.30;;;;;;4200079;28;20041;-89
2022/07/04 09:35:16;;;;;;;5.28;0.85;;;21.50;88.50;;;;;;4183023;28;20036;-89
2022/07/04 09:37:19;;;;;;;4.50;1.25;;;21.80;91.60;;;;;;4182956;28;20128;-89
2022/07/04 09:39:21;;;;;;;3.25;0.40;;;22.00;87.50;;;;;;4233144;28;20089;-90
2022/07/04 09:41:25;;;;;;;2.83;1.20;;;22.00;87.20;;;;;;4183615;28;20088;-90
2022/07/04 09:43:27;;;;;;;1.48;0.60;;;22.20;89.30;;;;;;4199528;28;20053;-87
2022/07/04 09:45:28;;;;;;;4.35;0.85;;;22.40;88.20;;;;;;4200423;28;20424;-89
2022/07/04 09:47:29;;;;;;;1.10;0.55;;;22.30;86.30;;;;;;4202975;28;20055;-89
2022/07/04 09:49:30;;;;;;;0.63;0.50;;;22.20;86.00;;;;;;4182286;28;20044;-88
2022/07/04 09:51:44;;;;;;;1.73;0.70;;;22.30;85.80;;;;;;4194940;28;20083;-88
2022/07/04 09:53:46;;;;;;;1.38;0.80;;;22.20;82.50;;;;;;4182771;28;20083;-88
2022/07/04 09:55:49;;;;;;;2.22;0.60;;;22.20;84.40;;;;;;4199885;28;20052;-88
2022/07/04 09:57:50;;;;;;;2.35;0.50;;;22.40;85.90;;;;;;4200485;28;20072;-88
2022/07/04 09:59:52;;;;;;;1.10;0.93;;;22.60;83.90;;;;;;4200314;28;20048;-87
2022/07/04 10:02:16;;;;;;;1.40;0.50;;;22.30;82.20;;;;;;4198977;28;20044;-87
2022/07/04 10:04:17;;;;;;;2.35;0.68;;;22.40;79.10;;;;;;4182513;28;20052;-88
2022/07/04 10:06:18;;;;;;;2.15;0.60;;;22.40;79.40;;;;;;4200710;28;20508;-88
2022/07/04 10:08:19;;;;;;;1.60;0.73;;;22.50;81.90;;;;;;4185432;28;20103;-88
2022/07/04 10:10:30;;;;;;;1.40;0.50;;;22.50;80.80;;;;;;4182789;28;20055;-87
2022/07/04 10:12:30;;;;;;;1.65;0.68;;;22.60;80.70;;;;;;4199232;28;20055;-88
2022/07/04 10:14:31;;;;;;;1.75;0.50;;;22.70;78.60;;;;;;4182269;28;20052;-88
2022/07/04 10:16:32;;;;;;;3.63;0.60;;;22.80;81.80;;;;;;4165878;28;20600;-88
2022/07/04 10:18:35;;;;;;;1.25;0.60;;;22.80;82.60;;;;;;4182865;28;20128;-87
2022/07/04 10:20:36;;;;;;;2.08;0.75;;;22.70;82.80;;;;;;4184036;28;20066;-87
2022/07/04 10:22:38;;;;;;;3.22;0.90;;;22.50;83.20;;;;;;4182558;28;20052;-88
2022/07/04 10:24:39;;;;;;;1.85;0.63;;;22.50;84.30;;;;;;4215757;28;20044;-88
2022/07/04 10:26:40;;;;;;;2.40;0.63;;;22.60;85.60;;;;;;4165869;28;20041;-88
2022/07/04 10:28:43;;;;;;;2.88;0.60;;;22.70;85.30;;;;;;4183504;28;20425;-88
2022/07/04 10:30:51;;;;;;;3.22;0.60;;;22.80;85.60;;;;;;4199375;28;20055;-88
2022/07/04 10:32:54;;;;;;;2.90;0.60;;;22.70;84.70;;;;;;4166108;28;20437;-86
2022/07/04 10:34:55;;;;;;;2.53;0.65;;;22.80;84.80;;;;;;4183477;28;20056;-88
2022/07/04 10:36:57;;;;;;;7.50;1.40;;;22.80;85.10;;;;;;4183538;28;20044;-88
2022/07/04 10:38:59;;;;;;;1.92;0.63;;;22.80;83.60;;;;;;4184289;28;20137;-88
2022/07/04 10:41:05;;;;;;;2.60;0.60;;;22.70;82.70;;;;;;4181650;28;20057;-88
2022/07/04 10:43:31;;;;;;;1.90;0.80;;;22.80;82.90;;;;;;4198344;28;20048;-88
2022/07/04 10:45:32;;;;;;;3.15;0.70;;;22.40;80.80;;;;;;4189928;28;20527;-88
2022/07/04 10:47:33;;;;;;;4.30;0.95;;;22.60;81.80;;;;;;4165334;28;20049;-88
2022/07/04 10:49:35;;;;;;;2.05;0.60;;;22.70;74.00;;;;;;4198429;28;20040;-89
2022/07/04 10:51:35;;;;;;;3.10;0.70;;;22.60;79.60;;;;;;4198368;28;20117;-88
2022/07/04 10:53:59;;;;;;;1.80;1.10;;;22.60;82.10;;;;;;4166808;28;20048;-88
2022/07/04 10:56:14;;;;;;;1.17;0.60;;;22.60;78.60;;;;;;4165615;28;20128;-88
2022/07/04 10:58:39;;;;;;;2.45;0.80;;;22.50;83.50;;;;;;4181245;28;20524;-88
2022/07/04 11:01:30;;;;;;;2.67;0.70;;;22.60;78.60;;;;;;4197997;28;20098;-91
2022/07/04 11:03:45;;;;;;;1.60;0.80;;;22.50;76.80;;;;;;4182482;28;20056;-88
2022/07/04 11:05:49;;;;;;;2.58;0.90;;;22.60;79.10;;;;;;4198257;28;20522;-88
2022/07/04 11:07:57;;;;;;;3.20;0.60;;;22.80;80.70;;;;;;4200150;28;20080;-88
2022/07/04 11:10:15;;;;;;;2.93;0.83;;;23.00;80.70;;;;;;4181505;28;20131;-88